CheckWX is a tool to help pilots better visualize weather data.  It is not intended as a substitute for an official pre-flight weather briefing.

07:32:26 UTC

TDPD TAF
Melville Hall Airport
Marigot, Dominica
TAF TDPD 271700Z 2718/2818 12008KT 9999 SCT024

Jan-27@
18:00 UTC

Jan-27 @ 18:00 UTC

Jan-28@
18:00 UTC

Jan-28 @ 18:00 UTC

TAF TDPD 271700Z 2718/2818 12008KT 9999 SCT024
Wind
  • 120° at 8 KTS
Cloud Levels
  • Scattered at 2,400' AGL